sensor_id;sensor_type;location;lat;lon;timestamp;pressure;altitude;pressure_sealevel;temperature;humidity
61337;BME280;47212;41.326;2.104;2022-11-20T00:03:14;101351.28;;;11.95;48.60
61337;BME280;47212;41.326;2.104;2022-11-20T00:08:17;101353.75;;;11.97;48.70
61337;BME280;47212;41.326;2.104;2022-11-20T00:13:22;101351.81;;;11.92;48.27
61337;BME280;47212;41.326;2.104;2022-11-20T00:18:27;101349.53;;;11.84;48.82
61337;BME280;47212;41.326;2.104;2022-11-20T00:23:29;101353.50;;;11.76;48.99
61337;BME280;47212;41.326;2.104;2022-11-20T00:28:34;101361.06;;;11.69;49.54
61337;BME280;47212;41.326;2.104;2022-11-20T00:33:36;101364.75;;;11.80;49.42
61337;BME280;47212;41.326;2.104;2022-11-20T00:38:38;101370.66;;;11.94;48.85
61337;BME280;47212;41.326;2.104;2022-11-20T00:43:41;101367.81;;;12.10;48.89
61337;BME280;47212;41.326;2.104;2022-11-20T00:48:45;101371.81;;;12.25;49.11
61337;BME280;47212;41.326;2.104;2022-11-20T00:53:49;101376.81;;;12.33;48.91
61337;BME280;47212;41.326;2.104;2022-11-20T00:58:51;101370.28;;;12.34;48.62
61337;BME280;47212;41.326;2.104;2022-11-20T01:03:55;101376.56;;;12.34;47.90
61337;BME280;47212;41.326;2.104;2022-11-20T01:08:59;101372.44;;;12.32;47.95
61337;BME280;47212;41.326;2.104;2022-11-20T01:14:04;101380.06;;;12.30;48.39
61337;BME280;47212;41.326;2.104;2022-11-20T01:19:10;101381.09;;;12.24;48.93
61337;BME280;47212;41.326;2.104;2022-11-20T01:24:20;101378.31;;;12.19;49.09
61337;BME280;47212;41.326;2.104;2022-11-20T01:29:24;101380.47;;;12.17;48.95
61337;BME280;47212;41.326;2.104;2022-11-20T01:34:26;101385.16;;;11.99;49.32
61337;BME280;47212;41.326;2.104;2022-11-20T01:39:29;101394.78;;;11.41;50.13
61337;BME280;47212;41.326;2.104;2022-11-20T01:44:51;101396.94;;;11.23;50.60
61337;BME280;47212;41.326;2.104;2022-11-20T01:50:10;101405.66;;;11.03;52.06
61337;BME280;47212;41.326;2.104;2022-11-20T01:55:18;101408.47;;;10.91;52.32
61337;BME280;47212;41.326;2.104;2022-11-20T02:11:13;101404.69;;;10.75;51.96
61337;BME280;47212;41.326;2.104;2022-11-20T02:16:31;101408.22;;;10.93;52.12
61337;BME280;47212;41.326;2.104;2022-11-20T02:27:33;101413.41;;;11.28;51.57
61337;BME280;47212;41.326;2.104;2022-11-20T02:32:43;101410.50;;;11.34;52.06
61337;BME280;47212;41.326;2.104;2022-11-20T02:37:53;101413.81;;;11.36;51.53
61337;BME280;47212;41.326;2.104;2022-11-20T02:43:03;101417.84;;;11.34;51.25
61337;BME280;47212;41.326;2.104;2022-11-20T02:48:14;101423.56;;;11.32;51.49
61337;BME280;47212;41.326;2.104;2022-11-20T02:53:19;101416.13;;;11.28;51.60
61337;BME280;47212;41.326;2.104;2022-11-20T02:58:28;101415.78;;;11.24;51.62
61337;BME280;47212;41.326;2.104;2022-11-20T03:03:33;101414.81;;;11.13;51.68
61337;BME280;47212;41.326;2.104;2022-11-20T03:08:49;101413.91;;;11.08;51.68
61337;BME280;47212;41.326;2.104;2022-11-20T03:13:57;101424.72;;;11.03;51.98
61337;BME280;47212;41.326;2.104;2022-11-20T03:19:14;101412.69;;;10.99;52.48
61337;BME280;47212;41.326;2.104;2022-11-20T03:24:23;101412.09;;;10.97;51.94
61337;BME280;47212;41.326;2.104;2022-11-20T03:29:27;101418.63;;;10.96;52.03
61337;BME280;47212;41.326;2.104;2022-11-20T03:34:36;101411.53;;;10.95;52.58
61337;BME280;47212;41.326;2.104;2022-11-20T03:39:38;101428.13;;;10.93;51.64
61337;BME280;47212;41.326;2.104;2022-11-20T03:44:56;101421.00;;;10.92;52.19
61337;BME280;47212;41.326;2.104;2022-11-20T03:50:02;101421.50;;;10.89;51.11
61337;BME280;47212;41.326;2.104;2022-11-20T03:55:15;101422.25;;;10.84;52.01
61337;BME280;47212;41.326;2.104;2022-11-20T04:07:10;101425.72;;;10.80;51.96
61337;BME280;47212;41.326;2.104;2022-11-20T04:12:31;101432.50;;;10.77;51.63
61337;BME280;47212;41.326;2.104;2022-11-20T04:17:42;101438.91;;;10.71;52.29
61337;BME280;47212;41.326;2.104;2022-11-20T04:22:46;101446.50;;;10.69;52.33
61337;BME280;47212;41.326;2.104;2022-11-20T04:27:53;101450.22;;;10.63;52.28
61337;BME280;47212;41.326;2.104;2022-11-20T04:32:57;101453.19;;;10.62;52.56
61337;BME280;47212;41.326;2.104;2022-11-20T04:38:07;101456.06;;;10.55;52.50
61337;BME280;47212;41.326;2.104;2022-11-20T04:43:13;101450.53;;;10.50;53.12
61337;BME280;47212;41.326;2.104;2022-11-20T04:48:24;101438.47;;;10.46;52.86
61337;BME280;47212;41.326;2.104;2022-11-20T04:53:31;101446.28;;;10.42;52.93
61337;BME280;47212;41.326;2.104;2022-11-20T04:58:41;101451.88;;;10.36;52.94
61337;BME280;47212;41.326;2.104;2022-11-20T05:03:47;101457.94;;;10.26;52.99
61337;BME280;47212;41.326;2.104;2022-11-20T05:08:49;101455.72;;;10.11;54.54
61337;BME280;47212;41.326;2.104;2022-11-20T05:13:51;101462.03;;;10.00;53.65
61337;BME280;47212;41.326;2.104;2022-11-20T05:18:54;101476.00;;;9.92;54.69
61337;BME280;47212;41.326;2.104;2022-11-20T05:23:56;101480.03;;;9.89;53.58
61337;BME280;47212;41.326;2.104;2022-11-20T05:28:58;101481.31;;;9.87;54.08
61337;BME280;47212;41.326;2.104;2022-11-20T05:33:59;101463.84;;;9.83;53.90
61337;BME280;47212;41.326;2.104;2022-11-20T05:39:01;101471.41;;;9.81;53.91
61337;BME280;47212;41.326;2.104;2022-11-20T05:44:05;101471.28;;;9.76;54.61
61337;BME280;47212;41.326;2.104;2022-11-20T05:51:05;101501.19;;;9.76;54.18
61337;BME280;47212;41.326;2.104;2022-11-20T05:58:03;101527.91;;;9.79;53.86
61337;BME280;47212;41.326;2.104;2022-11-20T06:04:59;101538.91;;;9.72;54.51
61337;BME280;47212;41.326;2.104;2022-11-20T06:10:26;101550.50;;;9.68;54.51
61337;BME280;47212;41.326;2.104;2022-11-20T06:15:28;101539.50;;;9.63;54.53
61337;BME280;47212;41.326;2.104;2022-11-20T06:20:30;101548.38;;;9.58;54.94
61337;BME280;47212;41.326;2.104;2022-11-20T06:25:32;101543.03;;;9.51;54.83
61337;BME280;47212;41.326;2.104;2022-11-20T06:30:35;101551.53;;;9.43;55.35
61337;BME280;47212;41.326;2.104;2022-11-20T06:35:37;101546.91;;;9.32;55.64
61337;BME280;47212;41.326;2.104;2022-11-20T06:40:43;101544.06;;;9.27;56.39
61337;BME280;47212;41.326;2.104;2022-11-20T06:45:55;101533.06;;;9.22;56.38
61337;BME280;47212;41.326;2.104;2022-11-20T06:50:58;101539.22;;;9.17;55.67
61337;BME280;47212;41.326;2.104;2022-11-20T06:56:00;101544.88;;;9.16;55.91
61337;BME280;47212;41.326;2.104;2022-11-20T07:01:05;101552.44;;;9.14;55.73
61337;BME280;47212;41.326;2.104;2022-11-20T07:06:08;101556.56;;;9.16;55.79
61337;BME280;47212;41.326;2.104;2022-11-20T07:11:11;101544.41;;;9.19;55.93
61337;BME280;47212;41.326;2.104;2022-11-20T07:16:13;101565.44;;;9.23;55.79
61337;BME280;47212;41.326;2.104;2022-11-20T07:21:16;101570.16;;;9.28;55.88
61337;BME280;47212;41.326;2.104;2022-11-20T07:26:18;101579.75;;;9.31;55.23
61337;BME280;47212;41.326;2.104;2022-11-20T07:31:21;101587.44;;;9.34;55.20
61337;BME280;47212;41.326;2.104;2022-11-20T07:36:23;101606.22;;;9.35;55.35
61337;BME280;47212;41.326;2.104;2022-11-20T07:41:25;101612.25;;;9.37;55.56
61337;BME280;47212;41.326;2.104;2022-11-20T07:46:27;101620.53;;;9.42;55.36
61337;BME280;47212;41.326;2.104;2022-11-20T07:51:29;101625.56;;;13.88;46.45
61337;BME280;47212;41.326;2.104;2022-11-20T07:56:32;101615.72;;;18.39;38.33
61337;BME280;47212;41.326;2.104;2022-11-20T08:01:34;101626.41;;;20.70;34.48
61337;BME280;47212;41.326;2.104;2022-11-20T08:06:36;101636.75;;;21.64;32.76
61337;BME280;47212;41.326;2.104;2022-11-20T08:11:38;101650.44;;;21.83;32.70
61337;BME280;47212;41.326;2.104;2022-11-20T08:16:59;101660.38;;;21.84;32.59
61337;BME280;47212;41.326;2.104;2022-11-20T08:22:01;101666.97;;;21.52;33.02
61337;BME280;47212;41.326;2.104;2022-11-20T08:27:03;101661.56;;;20.83;33.76
61337;BME280;47212;41.326;2.104;2022-11-20T08:32:05;101663.50;;;20.42;32.19
61337;BME280;47212;41.326;2.104;2022-11-20T08:37:09;101664.97;;;20.20;35.06
61337;BME280;47212;41.326;2.104;2022-11-20T08:42:11;101678.19;;;19.91;33.14
61337;BME280;47212;41.326;2.104;2022-11-20T08:47:14;101676.44;;;19.62;36.65
61337;BME280;47212;41.326;2.104;2022-11-20T08:52:16;101691.75;;;19.55;36.61
61337;BME280;47212;41.326;2.104;2022-11-20T08:57:18;101689.88;;;19.50;36.87
61337;BME280;47212;41.326;2.104;2022-11-20T09:02:20;101688.00;;;19.46;37.00
61337;BME280;47212;41.326;2.104;2022-11-20T09:07:22;101682.72;;;19.30;37.09
61337;BME280;47212;41.326;2.104;2022-11-20T09:12:24;101671.50;;;19.22;37.28
61337;BME280;47212;41.326;2.104;2022-11-20T09:17:26;101671.06;;;19.15;37.25
61337;BME280;47212;41.326;2.104;2022-11-20T09:22:27;101664.00;;;19.03;35.29
61337;BME280;47212;41.326;2.104;2022-11-20T09:27:30;101662.50;;;18.92;37.96
61337;BME280;47212;41.326;2.104;2022-11-20T09:32:31;101662.63;;;18.82;35.95
61337;BME280;47212;41.326;2.104;2022-11-20T09:37:34;101671.41;;;18.65;38.39
61337;BME280;47212;41.326;2.104;2022-11-20T09:53:04;101676.69;;;18.04;38.32
61337;BME280;47212;41.326;2.104;2022-11-20T10:03:37;101693.34;;;18.18;36.41
61337;BME280;47212;41.326;2.104;2022-11-20T10:08:45;101685.91;;;18.23;37.78
61337;BME280;47212;41.326;2.104;2022-11-20T10:24:44;101701.25;;;18.29;35.72
61337;BME280;47212;41.326;2.104;2022-11-20T10:29:55;101702.22;;;18.43;36.25
61337;BME280;47212;41.326;2.104;2022-11-20T10:35:05;101718.16;;;18.75;36.40
61337;BME280;47212;41.326;2.104;2022-11-20T10:40:38;101724.25;;;18.96;35.00
61337;BME280;47212;41.326;2.104;2022-11-20T10:56:51;101721.47;;;19.63;33.71
61337;BME280;47212;41.326;2.104;2022-11-20T11:01:53;101703.53;;;19.79;35.43
61337;BME280;47212;41.326;2.104;2022-11-20T11:07:10;101691.88;;;20.01;33.43
61337;BME280;47212;41.326;2.104;2022-11-20T11:12:14;101704.28;;;20.17;34.85
61337;BME280;47212;41.326;2.104;2022-11-20T11:17:32;101682.78;;;20.14;33.13
61337;BME280;47212;41.326;2.104;2022-11-20T11:22:43;101670.09;;;20.13;33.48
61337;BME280;47212;41.326;2.104;2022-11-20T11:27:48;101657.19;;;20.22;34.58
61337;BME280;47212;41.326;2.104;2022-11-20T11:33:02;101631.81;;;20.34;33.06
61337;BME280;47212;41.326;2.104;2022-11-20T11:38:07;101612.50;;;20.48;34.07
61337;BME280;47212;41.326;2.104;2022-11-20T11:43:20;101596.81;;;20.57;32.52
61337;BME280;47212;41.326;2.104;2022-11-20T11:54:00;101590.75;;;20.82;33.71
61337;BME280;47212;41.326;2.104;2022-11-20T11:59:14;101575.06;;;20.91;32.11
61337;BME280;47212;41.326;2.104;2022-11-20T12:04:25;101570.16;;;21.11;31.76
61337;BME280;47212;41.326;2.104;2022-11-20T12:09:38;101574.56;;;21.12;31.87
61337;BME280;47212;41.326;2.104;2022-11-20T12:14:46;101571.50;;;21.13;32.78
61337;BME280;47212;41.326;2.104;2022-11-20T12:19:51;101590.25;;;21.16;33.65
61337;BME280;47212;41.326;2.104;2022-11-20T12:25:04;101585.06;;;21.01;31.98
61337;BME280;47212;41.326;2.104;2022-11-20T12:30:14;101579.78;;;20.77;32.69
61337;BME280;47212;41.326;2.104;2022-11-20T12:46:45;101589.72;;;20.78;33.42
61337;BME280;47212;41.326;2.104;2022-11-20T12:52:04;101588.41;;;20.62;33.81
61337;BME280;47212;41.326;2.104;2022-11-20T13:08:34;101581.22;;;20.33;33.98
61337;BME280;47212;41.326;2.104;2022-11-20T13:19:18;101586.34;;;20.26;34.43
61337;BME280;47212;41.326;2.104;2022-11-20T13:29:27;101549.38;;;19.95;34.39
61337;BME280;47212;41.326;2.104;2022-11-20T13:34:31;101551.09;;;19.91;33.74
61337;BME280;47212;41.326;2.104;2022-11-20T13:39:35;101549.44;;;19.90;34.00
61337;BME280;47212;41.326;2.104;2022-11-20T13:44:46;101558.03;;;19.75;34.50
61337;BME280;47212;41.326;2.104;2022-11-20T13:49:49;101542.34;;;19.56;35.14
61337;BME280;47212;41.326;2.104;2022-11-20T13:55:11;101538.88;;;19.32;34.98
61337;BME280;47212;41.326;2.104;2022-11-20T14:00:17;101528.59;;;19.19;36.18
61337;BME280;47212;41.326;2.104;2022-11-20T14:05:22;101528.28;;;19.01;36.45
61337;BME280;47212;41.326;2.104;2022-11-20T14:10:28;101525.78;;;18.86;37.11
61337;BME280;47212;41.326;2.104;2022-11-20T14:15:34;101519.50;;;18.62;37.98
61337;BME280;47212;41.326;2.104;2022-11-20T14:20:45;101512.84;;;18.44;38.77
61337;BME280;47212;41.326;2.104;2022-11-20T14:25:48;101509.78;;;18.45;39.13
61337;BME280;47212;41.326;2.104;2022-11-20T14:30:49;101530.66;;;18.52;40.01
61337;BME280;47212;41.326;2.104;2022-11-20T14:35:55;101531.31;;;18.43;40.80
61337;BME280;47212;41.326;2.104;2022-11-20T14:41:28;101522.00;;;18.39;40.79
61337;BME280;47212;41.326;2.104;2022-11-20T14:46:31;101518.84;;;18.27;40.82
61337;BME280;47212;41.326;2.104;2022-11-20T14:51:35;101511.09;;;18.29;41.09
61337;BME280;47212;41.326;2.104;2022-11-20T14:56:39;101509.22;;;18.25;41.46
61337;BME280;47212;41.326;2.104;2022-11-20T15:02:04;101500.75;;;18.16;41.94
61337;BME280;47212;41.326;2.104;2022-11-20T15:07:06;101493.88;;;17.95;42.12
61337;BME280;47212;41.326;2.104;2022-11-20T15:12:15;101472.97;;;17.65;43.85
61337;BME280;47212;41.326;2.104;2022-11-20T15:17:19;101465.16;;;17.48;43.60
61337;BME280;47212;41.326;2.104;2022-11-20T15:22:23;101483.72;;;17.37;44.08
61337;BME280;47212;41.326;2.104;2022-11-20T15:27:25;101487.88;;;17.35;44.99
61337;BME280;47212;41.326;2.104;2022-11-20T15:32:27;101478.00;;;17.29;45.74
61337;BME280;47212;41.326;2.104;2022-11-20T15:37:29;101459.94;;;17.17;46.19
61337;BME280;47212;41.326;2.104;2022-11-20T15:42:31;101463.34;;;17.04;49.28
61337;BME280;47212;41.326;2.104;2022-11-20T15:47:35;101463.41;;;16.99;47.82
61337;BME280;47212;41.326;2.104;2022-11-20T15:52:37;101463.44;;;16.94;48.13
61337;BME280;47212;41.326;2.104;2022-11-20T15:57:42;101468.44;;;16.87;48.29
61337;BME280;47212;41.326;2.104;2022-11-20T16:02:44;101482.81;;;16.79;48.88
61337;BME280;47212;41.326;2.104;2022-11-20T16:07:46;101483.66;;;16.74;48.86
61337;BME280;47212;41.326;2.104;2022-11-20T16:12:48;101492.22;;;16.68;51.74
61337;BME280;47212;41.326;2.104;2022-11-20T16:18:10;101499.94;;;16.61;49.90
61337;BME280;47212;41.326;2.104;2022-11-20T16:23:13;101496.69;;;16.53;49.76
61337;BME280;47212;41.326;2.104;2022-11-20T16:28:16;101496.16;;;16.46;50.08
61337;BME280;47212;41.326;2.104;2022-11-20T16:33:21;101499.50;;;16.38;50.68
61337;BME280;47212;41.326;2.104;2022-11-20T16:38:24;101499.78;;;16.32;50.87
61337;BME280;47212;41.326;2.104;2022-11-20T16:43:26;101509.69;;;16.28;50.89
61337;BME280;47212;41.326;2.104;2022-11-20T16:48:28;101503.13;;;16.23;50.87
61337;BME280;47212;41.326;2.104;2022-11-20T16:53:32;101485.31;;;16.16;52.09
61337;BME280;47212;41.326;2.104;2022-11-20T16:58:35;101503.72;;;16.10;51.71
61337;BME280;47212;41.326;2.104;2022-11-20T17:03:40;101510.34;;;16.04;51.74
61337;BME280;47212;41.326;2.104;2022-11-20T17:08:43;101513.13;;;15.99;51.83
61337;BME280;47212;41.326;2.104;2022-11-20T17:13:47;101497.19;;;15.96;51.90
61337;BME280;47212;41.326;2.104;2022-11-20T17:18:49;101511.78;;;15.91;52.33
61337;BME280;47212;41.326;2.104;2022-11-20T17:23:51;101526.34;;;15.87;52.27
61337;BME280;47212;41.326;2.104;2022-11-20T17:28:57;101522.22;;;15.84;52.20
61337;BME280;47212;41.326;2.104;2022-11-20T17:34:02;101534.59;;;15.82;52.59
61337;BME280;47212;41.326;2.104;2022-11-20T17:39:04;101531.84;;;15.77;53.57
61337;BME280;47212;41.326;2.104;2022-11-20T17:44:09;101537.06;;;15.73;52.43
61337;BME280;47212;41.326;2.104;2022-11-20T17:49:11;101529.13;;;15.72;52.33
61337;BME280;47212;41.326;2.104;2022-11-20T17:54:15;101526.66;;;15.70;52.00
61337;BME280;47212;41.326;2.104;2022-11-20T17:59:19;101541.19;;;15.66;51.87
61337;BME280;47212;41.326;2.104;2022-11-20T18:04:21;101543.41;;;15.64;51.81
61337;BME280;47212;41.326;2.104;2022-11-20T18:09:24;101551.59;;;15.58;52.34
61337;BME280;47212;41.326;2.104;2022-11-20T18:14:25;101557.34;;;15.52;54.05
61337;BME280;47212;41.326;2.104;2022-11-20T18:19:40;101565.59;;;15.47;52.76
61337;BME280;47212;41.326;2.104;2022-11-20T18:25:03;101565.03;;;15.40;52.79
61337;BME280;47212;41.326;2.104;2022-11-20T18:30:05;101566.13;;;15.34;52.55
61337;BME280;47212;41.326;2.104;2022-11-20T18:35:09;101575.47;;;15.27;52.91
61337;BME280;47212;41.326;2.104;2022-11-20T18:40:12;101565.56;;;15.21;53.09
61337;BME280;47212;41.326;2.104;2022-11-20T18:45:17;101576.00;;;15.14;53.06
61337;BME280;47212;41.326;2.104;2022-11-20T18:50:22;101577.63;;;15.10;52.78
61337;BME280;47212;41.326;2.104;2022-11-20T18:55:26;101582.56;;;15.08;53.07
61337;BME280;47212;41.326;2.104;2022-11-20T19:00:28;101574.34;;;15.03;53.18
61337;BME280;47212;41.326;2.104;2022-11-20T19:05:30;101576.78;;;15.00;54.90
61337;BME280;47212;41.326;2.104;2022-11-20T19:10:32;101563.91;;;14.95;52.72
61337;BME280;47212;41.326;2.104;2022-11-20T19:15:34;101569.78;;;14.51;55.41
61337;BME280;47212;41.326;2.104;2022-11-20T19:20:41;101580.47;;;14.00;55.87
61337;BME280;47212;41.326;2.104;2022-11-20T19:25:43;101585.78;;;13.80;57.32
61337;BME280;47212;41.326;2.104;2022-11-20T19:30:50;101588.94;;;13.62;55.65
61337;BME280;47212;41.326;2.104;2022-11-20T19:35:53;101584.41;;;13.41;56.10
61337;BME280;47212;41.326;2.104;2022-11-20T19:40:57;101591.94;;;13.28;55.97
61337;BME280;47212;41.326;2.104;2022-11-20T19:45:59;101621.41;;;13.21;56.80
61337;BME280;47212;41.326;2.104;2022-11-20T19:51:17;101625.09;;;13.10;58.26
61337;BME280;47212;41.326;2.104;2022-11-20T19:56:21;101637.88;;;13.04;56.51
61337;BME280;47212;41.326;2.104;2022-11-20T20:01:29;101616.38;;;12.91;57.96
61337;BME280;47212;41.326;2.104;2022-11-20T20:06:35;101622.38;;;12.88;56.96
61337;BME280;47212;41.326;2.104;2022-11-20T20:11:43;101614.16;;;12.88;56.92
61337;BME280;47212;41.326;2.104;2022-11-20T20:16:46;101616.59;;;12.85;58.95
61337;BME280;47212;41.326;2.104;2022-11-20T20:21:50;101634.00;;;12.79;57.83
61337;BME280;47212;41.326;2.104;2022-11-20T20:26:58;101645.44;;;12.75;59.23
61337;BME280;47212;41.326;2.104;2022-11-20T20:32:00;101636.16;;;12.76;60.26
61337;BME280;47212;41.326;2.104;2022-11-20T20:37:03;101633.94;;;12.73;58.25
61337;BME280;47212;41.326;2.104;2022-11-20T20:42:07;101645.25;;;12.82;59.27
61337;BME280;47212;41.326;2.104;2022-11-20T20:47:09;101647.31;;;12.97;58.72
61337;BME280;47212;41.326;2.104;2022-11-20T20:52:12;101631.59;;;13.04;59.10
61337;BME280;47212;41.326;2.104;2022-11-20T20:57:15;101652.16;;;12.90;58.20
61337;BME280;47212;41.326;2.104;2022-11-20T21:02:18;101646.53;;;12.74;59.10
61337;BME280;47212;41.326;2.104;2022-11-20T21:07:25;101650.84;;;12.70;57.99
61337;BME280;47212;41.326;2.104;2022-11-20T21:12:28;101651.03;;;12.64;59.31
61337;BME280;47212;41.326;2.104;2022-11-20T21:17:30;101655.09;;;12.61;59.17
61337;BME280;47212;41.326;2.104;2022-11-20T21:22:32;101653.44;;;12.60;58.98
61337;BME280;47212;41.326;2.104;2022-11-20T21:27:37;101657.19;;;12.54;60.05
61337;BME280;47212;41.326;2.104;2022-11-20T21:32:39;101656.88;;;12.51;59.42
61337;BME280;47212;41.326;2.104;2022-11-20T21:37:41;101657.31;;;12.42;59.65
61337;BME280;47212;41.326;2.104;2022-11-20T21:42:45;101655.34;;;12.38;58.99
61337;BME280;47212;41.326;2.104;2022-11-20T21:47:50;101662.13;;;12.35;59.45
61337;BME280;47212;41.326;2.104;2022-11-20T21:52:52;101671.06;;;12.31;58.90
61337;BME280;47212;41.326;2.104;2022-11-20T21:57:54;101683.75;;;12.20;59.53
61337;BME280;47212;41.326;2.104;2022-11-20T22:02:56;101675.88;;;12.24;60.12
61337;BME280;47212;41.326;2.104;2022-11-20T22:08:00;101694.81;;;12.30;61.37
61337;BME280;47212;41.326;2.104;2022-11-20T22:13:02;101684.78;;;12.36;61.39
61337;BME280;47212;41.326;2.104;2022-11-20T22:18:25;101690.91;;;12.43;61.20
61337;BME280;47212;41.326;2.104;2022-11-20T22:23:27;101695.84;;;12.46;60.43
61337;BME280;47212;41.326;2.104;2022-11-20T22:28:32;101702.41;;;12.45;60.63
61337;BME280;47212;41.326;2.104;2022-11-20T22:33:36;101696.38;;;12.43;60.70
61337;BME280;47212;41.326;2.104;2022-11-20T22:38:43;101679.34;;;12.36;61.92
61337;BME280;47212;41.326;2.104;2022-11-20T22:43:52;101660.97;;;12.31;62.31
61337;BME280;47212;41.326;2.104;2022-11-20T22:48:57;101672.22;;;12.35;62.38
61337;BME280;47212;41.326;2.104;2022-11-20T22:54:03;101683.47;;;12.38;61.88
61337;BME280;47212;41.326;2.104;2022-11-20T22:59:14;101665.94;;;12.34;61.73
61337;BME280;47212;41.326;2.104;2022-11-20T23:04:19;101674.31;;;12.28;62.12
61337;BME280;47212;41.326;2.104;2022-11-20T23:09:23;101674.22;;;12.23;62.59
61337;BME280;47212;41.326;2.104;2022-11-20T23:14:25;101668.94;;;12.16;62.20
61337;BME280;47212;41.326;2.104;2022-11-20T23:19:28;101692.94;;;12.14;62.52
61337;BME280;47212;41.326;2.104;2022-11-20T23:24:36;101704.44;;;12.16;62.88
61337;BME280;47212;41.326;2.104;2022-11-20T23:29:39;101684.97;;;12.12;61.14
61337;BME280;47212;41.326;2.104;2022-11-20T23:34:41;101688.19;;;12.09;60.80
61337;BME280;47212;41.326;2.104;2022-11-20T23:39:45;101697.53;;;12.13;60.95
61337;BME280;47212;41.326;2.104;2022-11-20T23:44:47;101696.81;;;12.18;60.64
61337;BME280;47212;41.326;2.104;2022-11-20T23:49:49;101697.16;;;12.22;60.46
61337;BME280;47212;41.326;2.104;2022-11-20T23:54:52;101696.41;;;12.26;60.12
61337;BME280;47212;41.326;2.104;2022-11-20T23:59:55;101700.34;;;12.35;60.19
